Time;durP1;ratioP1;P1;durP2;ratioP2;P2;SDS_P1;SDS_P2;PMS_P1;PMS_P2;Temp;Humidity;BMP_temperature;BMP_pressure;BME280_temperature;BME280_humidity;BME280_pressure;Samples;Min_cycle;Max_cycle;Signal;HPM_P1;HPM_P2
2024/01/08 00:00:17;;;;;;;45.00;25.23;;;-7.40;99.90;;;;;;10473801;28;20276;-90
2024/01/08 00:05:20;;;;;;;47.10;27.13;;;-7.50;99.90;;;;;;10474517;28;20644;-90
2024/01/08 00:10:23;;;;;;;41.93;24.70;;;-6.90;99.90;;;;;;10470392;28;20234;-90
2024/01/08 00:15:25;;;;;;;30.80;19.87;;;-7.50;99.90;;;;;;10472086;28;20239;-90
2024/01/08 00:20:29;;;;;;;37.03;22.03;;;-7.50;99.90;;;;;;10471615;28;20265;-89
2024/01/08 00:25:31;;;;;;;34.13;19.57;;;-7.10;99.90;;;;;;10474262;28;20256;-90
2024/01/08 00:30:34;;;;;;;43.63;26.30;;;-7.50;99.90;;;;;;10471771;28;20221;-90
2024/01/08 00:35:36;;;;;;;47.63;28.70;;;-7.40;99.90;;;;;;10471343;28;20226;-90
2024/01/08 00:40:39;;;;;;;50.43;28.83;;;-6.90;99.90;;;;;;10470563;28;20297;-89
2024/01/08 00:45:42;;;;;;;46.47;26.57;;;-7.00;99.90;;;;;;10468951;28;20364;-89
2024/01/08 00:50:45;;;;;;;40.23;25.13;;;-6.60;99.90;;;;;;10462120;28;20226;-88
2024/01/08 00:55:47;;;;;;;42.53;26.07;;;-6.80;99.90;;;;;;10471760;28;20226;-88
2024/01/08 01:00:50;;;;;;;43.70;25.23;;;-7.00;99.90;;;;;;10471255;28;20269;-88
2024/01/08 01:05:55;;;;;;;44.47;25.20;;;-7.10;99.90;;;;;;10467225;28;20222;-88
2024/01/08 01:10:59;;;;;;;31.07;18.63;;;-7.10;99.90;;;;;;10470215;28;20233;-88
2024/01/08 01:16:02;;;;;;;48.57;27.33;;;-7.50;99.90;;;;;;10468024;28;20227;-88
2024/01/08 01:21:05;;;;;;;38.07;21.53;;;-7.50;99.90;;;;;;10475534;28;20327;-88
2024/01/08 01:26:07;;;;;;;43.77;24.83;;;-7.40;99.90;;;;;;10477464;28;20231;-87
2024/01/08 01:31:10;;;;;;;40.33;25.17;;;-7.40;99.90;;;;;;10450632;28;20288;-88
2024/01/08 01:36:13;;;;;;;35.90;22.80;;;-7.20;99.90;;;;;;10450944;28;20674;-88
2024/01/08 01:41:15;;;;;;;42.63;26.47;;;-7.00;99.90;;;;;;10450385;28;20250;-88
2024/01/08 01:46:34;;;;;;;43.50;23.30;;;-7.00;99.90;;;;;;10449528;28;20195;-88
2024/01/08 01:51:36;;;;;;;31.77;19.67;;;-6.90;99.90;;;;;;10453376;28;20229;-87
2024/01/08 01:57:00;;;;;;;47.67;27.57;;;-6.90;99.90;;;;;;10454325;28;20203;-88
2024/01/08 02:02:04;;;;;;;41.13;24.20;;;-6.80;99.90;;;;;;10450369;28;20242;-87
2024/01/08 02:07:07;;;;;;;31.57;20.70;;;-7.10;99.90;;;;;;10432040;28;20685;-88
2024/01/08 02:12:11;;;;;;;33.77;20.27;;;-7.30;99.90;;;;;;10449707;28;20635;-88
2024/01/08 02:17:14;;;;;;;33.33;20.60;;;-7.10;99.90;;;;;;10449487;28;20226;-89
2024/01/08 02:22:16;;;;;;;37.97;23.20;;;-7.00;99.90;;;;;;10449432;28;20708;-88
2024/01/08 02:27:20;;;;;;;38.50;22.80;;;-7.00;99.90;;;;;;10447775;28;20775;-90
2024/01/08 02:32:23;;;;;;;37.80;24.83;;;-7.20;99.90;;;;;;10449805;28;20300;-88
2024/01/08 02:37:25;;;;;;;44.87;25.87;;;-7.00;99.90;;;;;;10449143;28;20288;-88
2024/01/08 02:42:28;;;;;;;39.27;24.07;;;-6.70;99.90;;;;;;10447330;28;20254;-88
2024/01/08 02:47:31;;;;;;;45.37;24.20;;;-7.20;99.90;;;;;;10449018;28;20235;-88
2024/01/08 02:52:34;;;;;;;36.20;22.37;;;-7.10;99.90;;;;;;10448839;28;20227;-90
2024/01/08 02:57:36;;;;;;;36.13;22.03;;;-6.90;99.90;;;;;;10448881;28;20243;-89
2024/01/08 03:02:39;;;;;;;43.60;25.17;;;-7.10;99.90;;;;;;10448530;28;20262;-89
2024/01/08 03:07:42;;;;;;;41.93;23.70;;;-7.00;99.90;;;;;;10450780;28;20230;-88
2024/01/08 03:12:44;;;;;;;34.77;21.77;;;-6.80;99.90;;;;;;10456028;28;20246;-89
2024/01/08 03:17:47;;;;;;;36.77;20.27;;;-6.80;99.90;;;;;;10456018;28;20659;-89
2024/01/08 03:22:51;;;;;;;37.27;22.50;;;-7.10;99.90;;;;;;10456540;28;20266;-89
2024/01/08 03:27:53;;;;;;;38.30;22.87;;;-7.20;99.90;;;;;;10437684;28;20241;-88
2024/01/08 03:32:56;;;;;;;42.77;24.97;;;-6.90;99.90;;;;;;10455341;28;20226;-89
2024/01/08 03:37:59;;;;;;;39.63;23.10;;;-7.00;99.90;;;;;;10455571;28;20238;-89
2024/01/08 03:43:02;;;;;;;34.17;21.07;;;-6.70;99.90;;;;;;10455251;28;20258;-89
2024/01/08 03:48:05;;;;;;;37.83;23.83;;;-6.90;99.90;;;;;;10454532;28;20280;-89
2024/01/08 03:53:07;;;;;;;34.33;21.97;;;-7.50;99.90;;;;;;10455287;28;20257;-89
2024/01/08 03:58:10;;;;;;;36.43;22.87;;;-7.60;99.90;;;;;;10454339;28;20239;-88
2024/01/08 04:03:13;;;;;;;35.53;22.87;;;-7.30;99.90;;;;;;10454622;28;20715;-89
2024/01/08 04:08:16;;;;;;;37.27;21.67;;;-7.00;99.90;;;;;;10436459;28;20227;-90
2024/01/08 04:13:23;;;;;;;37.47;20.60;;;-7.00;99.90;;;;;;10452734;28;20701;-89
2024/01/08 04:18:25;;;;;;;30.83;19.37;;;-7.40;99.90;;;;;;10453402;28;20235;-89
2024/01/08 04:23:28;;;;;;;34.43;22.27;;;-7.10;99.90;;;;;;10453971;28;20270;-90
2024/01/08 04:28:31;;;;;;;36.87;21.53;;;-6.60;99.90;;;;;;10453232;28;20231;-89
2024/01/08 04:33:33;;;;;;;32.30;20.20;;;-6.40;99.90;;;;;;10452986;28;20273;-89
2024/01/08 04:38:36;;;;;;;29.60;17.73;;;-7.00;99.90;;;;;;10453676;28;20234;-89
2024/01/08 04:43:38;;;;;;;34.93;20.47;;;-6.60;99.90;;;;;;10452654;28;20262;-89
2024/01/08 04:48:41;;;;;;;27.27;17.30;;;-6.50;99.90;;;;;;10451942;28;20231;-88
2024/01/08 04:53:44;;;;;;;28.17;17.90;;;-6.50;99.90;;;;;;10451657;28;20753;-89
2024/01/08 04:58:47;;;;;;;27.53;17.10;;;-6.50;99.90;;;;;;10452411;28;20337;-89
2024/01/08 05:03:50;;;;;;;34.87;19.20;;;-6.60;99.90;;;;;;10452109;28;20631;-89
2024/01/08 05:08:53;;;;;;;27.53;16.73;;;-6.70;99.90;;;;;;10450591;28;20239;-89
2024/01/08 05:13:55;;;;;;;34.93;21.13;;;-6.80;99.90;;;;;;10450805;28;20234;-89
2024/01/08 05:18:58;;;;;;;32.20;19.63;;;-6.20;99.90;;;;;;10450965;28;20284;-89
2024/01/08 05:24:00;;;;;;;26.73;18.20;;;-5.50;99.90;;;;;;10450461;28;20270;-89
2024/01/08 05:29:03;;;;;;;36.77;20.27;;;-6.10;99.90;;;;;;10449811;28;20294;-89
2024/01/08 05:34:06;;;;;;;31.10;20.33;;;-6.50;99.90;;;;;;10448656;28;20800;-89
2024/01/08 05:39:08;;;;;;;30.07;17.37;;;-6.50;99.90;;;;;;10465690;28;20320;-89
2024/01/08 05:44:11;;;;;;;39.83;20.77;;;-6.50;99.90;;;;;;10450055;28;20301;-89
2024/01/08 05:49:13;;;;;;;29.57;18.33;;;-6.20;99.90;;;;;;10452867;28;20227;-89
2024/01/08 05:54:16;;;;;;;29.87;18.40;;;-6.60;99.90;;;;;;10444080;28;20234;-89
2024/01/08 05:59:19;;;;;;;31.30;21.10;;;-6.20;99.90;;;;;;10475396;28;20238;-89
2024/01/08 06:04:21;;;;;;;26.87;17.30;;;-6.30;99.90;;;;;;10449308;28;20250;-90
2024/01/08 06:09:24;;;;;;;27.00;15.47;;;-6.70;99.90;;;;;;10448358;28;20234;-89
2024/01/08 06:14:26;;;;;;;29.93;20.50;;;-6.60;99.90;;;;;;10447577;28;20242;-89
2024/01/08 06:19:29;;;;;;;28.03;18.30;;;-6.40;99.90;;;;;;10448350;28;20230;-88
2024/01/08 06:24:32;;;;;;;34.07;20.73;;;-6.60;99.90;;;;;;10449846;28;20304;-88
2024/01/08 06:29:35;;;;;;;31.03;18.73;;;-7.00;99.90;;;;;;10447477;28;20238;-88
2024/01/08 06:34:38;;;;;;;28.80;17.70;;;-6.90;99.90;;;;;;10448106;28;20256;-88
2024/01/08 06:39:40;;;;;;;30.00;19.43;;;-7.40;99.90;;;;;;10448569;28;20238;-85
2024/01/08 06:44:43;;;;;;;96.37;59.47;;;;;;;;;;10474921;28;20296;-87
2024/01/08 06:49:46;;;;;;;109.77;40.93;;;;;;;;;;10454737;28;20618;-87
2024/01/08 06:54:49;;;;;;;84.37;39.63;;;-9.00;99.90;;;;;;10456324;28;20285;-89
2024/01/08 06:59:52;;;;;;;40.87;19.87;;;;;;;;;;10456432;28;20234;-88
2024/01/08 07:04:57;;;;;;;44.43;22.13;;;-7.60;99.90;;;;;;10456084;28;20778;-87
2024/01/08 07:09:59;;;;;;;64.73;28.30;;;-6.80;99.90;;;;;;10455461;28;20288;-88
2024/01/08 07:15:04;;;;;;;54.37;29.03;;;-6.20;99.90;;;;;;10454187;28;20235;-88
2024/01/08 07:20:07;;;;;;;40.63;21.47;;;-5.90;99.90;;;;;;10489255;28;20717;-88
2024/01/08 07:25:10;;;;;;;33.70;18.33;;;-5.80;99.90;;;;;;10458106;28;20262;-87
2024/01/08 07:30:13;;;;;;;39.90;20.50;;;-5.50;99.90;;;;;;10479483;28;20218;-87
2024/01/08 07:35:16;;;;;;;39.97;22.13;;;-6.10;99.90;;;;;;10453317;28;20283;-87
2024/01/08 07:40:19;;;;;;;55.10;27.83;;;-5.80;99.90;;;;;;10485754;28;20227;-87
2024/01/08 07:45:23;;;;;;;41.03;21.23;;;-5.60;99.90;;;;;;10455866;28;20308;-87
2024/01/08 07:50:26;;;;;;;24.40;16.53;;;-6.20;99.90;;;;;;10463861;28;20214;-87
2024/01/08 07:55:28;;;;;;;29.20;17.70;;;-6.50;99.90;;;;;;10450798;28;20282;-87
2024/01/08 08:00:31;;;;;;;32.30;17.87;;;-6.10;99.90;;;;;;10449835;28;20807;-87
2024/01/08 08:05:34;;;;;;;29.47;17.40;;;-5.80;99.90;;;;;;10451999;28;20679;-87
2024/01/08 08:10:37;;;;;;;27.53;16.93;;;-5.30;99.90;;;;;;10457418;28;20254;-87
2024/01/08 08:15:41;;;;;;;24.90;13.40;;;-5.80;99.90;;;;;;10453150;28;20234;-87
2024/01/08 08:20:44;;;;;;;34.77;19.67;;;-4.90;99.90;;;;;;10452780;28;20267;-87
2024/01/08 08:25:47;;;;;;;29.63;18.60;;;-5.00;99.90;;;;;;10452766;28;20279;-88
2024/01/08 08:30:49;;;;;;;28.40;17.27;;;-4.90;99.90;;;;;;10452848;28;20227;-87
2024/01/08 08:35:52;;;;;;;24.33;15.90;;;-5.30;99.90;;;;;;10451829;28;20709;-87
2024/01/08 08:40:55;;;;;;;23.80;15.23;;;-5.20;99.90;;;;;;10452716;28;20656;-87
2024/01/08 08:45:59;;;;;;;38.00;19.77;;;-5.90;99.90;;;;;;10451560;28;20280;-87
2024/01/08 08:51:05;;;;;;;31.67;18.40;;;-6.00;99.90;;;;;;10452522;28;20234;-87
2024/01/08 08:56:10;;;;;;;19.33;10.90;;;-6.80;99.90;;;;;;10451605;28;20254;-88
2024/01/08 09:01:14;;;;;;;24.73;15.40;;;-6.60;99.90;;;;;;10450445;28;20226;-89
2024/01/08 09:06:17;;;;;;;25.13;14.83;;;-5.60;99.90;;;;;;10462384;28;20254;-87
2024/01/08 09:11:20;;;;;;;22.87;12.90;;;-4.30;99.90;;;;;;10450184;28;20711;-88
2024/01/08 09:16:26;;;;;;;28.60;18.40;;;-3.40;99.90;;;;;;10450703;28;20238;-87
2024/01/08 09:21:28;;;;;;;32.57;19.13;;;-3.80;99.90;;;;;;10450175;28;20311;-87
2024/01/08 09:26:30;;;;;;;24.23;12.23;;;-4.20;99.90;;;;;;10450240;28;20847;-88
2024/01/08 09:31:34;;;;;;;20.37;10.63;;;-4.60;99.90;;;;;;10450527;28;20235;-87
2024/01/08 09:36:37;;;;;;;27.17;17.83;;;-4.70;99.90;;;;;;10450294;28;20806;-88
2024/01/08 09:41:40;;;;;;;16.63;10.20;;;-4.60;99.90;;;;;;10451093;28;20250;-87
2024/01/08 09:46:47;;;;;;;26.67;16.77;;;-4.50;99.90;;;;;;10454203;28;20257;-87
2024/01/08 09:51:49;;;;;;;28.73;19.83;;;-4.00;99.90;;;;;;10489085;28;20234;-88
2024/01/08 09:56:53;;;;;;;32.87;21.23;;;;;;;;;;10482659;28;20234;-88
2024/01/08 10:01:56;;;;;;;32.00;21.23;;;;;;;;;;10445380;28;20268;-87
2024/01/08 10:07:06;;;;;;;38.23;23.87;;;-8.80;99.90;;;;;;10450349;28;20287;-87
2024/01/08 10:12:11;;;;;;;30.87;18.87;;;-9.20;99.90;;;;;;10447953;28;20321;-88
2024/01/08 10:17:14;;;;;;;30.13;16.90;;;-6.40;99.90;;;;;;10449669;28;20291;-88
2024/01/08 10:22:17;;;;;;;27.93;16.07;;;-6.50;99.90;;;;;;10449179;28;20270;-88
2024/01/08 10:27:19;;;;;;;26.67;16.30;;;-5.90;99.90;;;;;;10449447;28;20304;-88
2024/01/08 10:32:25;;;;;;;34.60;17.03;;;-5.70;99.90;;;;;;10452178;28;20754;-88
2024/01/08 10:37:27;;;;;;;32.33;18.77;;;-5.50;99.90;;;;;;10448486;28;20230;-88
2024/01/08 10:42:30;;;;;;;23.10;13.87;;;-4.70;99.90;;;;;;10446845;28;20250;-88
2024/01/08 10:47:37;;;;;;;29.20;16.33;;;-4.70;99.90;;;;;;10447058;28;20234;-88
2024/01/08 10:52:48;;;;;;;15.47;9.10;;;-5.10;99.90;;;;;;10448472;28;20261;-88
2024/01/08 10:58:03;;;;;;;22.77;11.83;;;-4.30;99.90;;;;;;10448648;28;20242;-87
2024/01/08 11:03:07;;;;;;;28.50;17.43;;;-4.10;99.90;;;;;;10448349;28;20315;-85
2024/01/08 11:08:11;;;;;;;23.70;14.50;;;-2.10;99.90;;;;;;10448097;28;20253;-84
2024/01/08 11:13:15;;;;;;;33.70;20.90;;;-2.40;99.90;;;;;;10474868;28;20254;-84
2024/01/08 11:18:27;;;;;;;27.70;14.60;;;-2.40;99.90;;;;;;10447698;28;20235;-83
2024/01/08 11:23:41;;;;;;;33.30;20.23;;;-3.00;99.90;;;;;;10446164;28;20340;-83
2024/01/08 11:29:04;;;;;;;19.03;11.23;;;-2.00;99.90;;;;;;10448032;28;20238;-83
2024/01/08 11:34:26;;;;;;;30.97;17.40;;;-2.20;99.90;;;;;;10453899;28;20234;-83
2024/01/08 11:39:38;;;;;;;27.00;15.87;;;-2.80;99.90;;;;;;10453750;28;20283;-83
2024/01/08 11:44:40;;;;;;;25.07;14.47;;;-3.20;99.90;;;;;;10453625;28;20262;-83
2024/01/08 11:49:43;;;;;;;23.60;12.47;;;-3.90;99.90;;;;;;10452419;28;20226;-83
2024/01/08 11:54:49;;;;;;;27.20;15.90;;;-3.90;99.90;;;;;;10452513;28;20230;-83
2024/01/08 11:59:52;;;;;;;18.07;11.37;;;-4.40;99.90;;;;;;10453621;28;20238;-83
2024/01/08 12:04:55;;;;;;;29.50;15.30;;;-4.30;99.90;;;;;;10453640;28;20254;-83
2024/01/08 12:10:06;;;;;;;24.37;15.50;;;-4.30;99.90;;;;;;10453476;28;20226;-83
2024/01/08 12:15:09;;;;;;;20.77;9.93;;;-5.00;99.90;;;;;;10451585;28;20767;-83
2024/01/08 12:20:11;;;;;;;23.80;15.53;;;-4.60;99.90;;;;;;10452030;28;20262;-83
2024/01/08 12:25:14;;;;;;;24.33;15.47;;;-4.40;99.90;;;;;;10450332;28;20266;-83
2024/01/08 12:30:17;;;;;;;26.87;16.90;;;-4.40;99.90;;;;;;10450729;28;20303;-83
2024/01/08 12:35:20;;;;;;;24.77;15.83;;;-4.10;99.90;;;;;;10451078;28;20627;-83
2024/01/08 12:40:22;;;;;;;24.43;15.23;;;-4.40;99.90;;;;;;10450490;28;20243;-82
2024/01/08 12:45:25;;;;;;;22.33;14.67;;;-3.70;99.90;;;;;;10451371;28;20246;-83
2024/01/08 12:50:28;;;;;;;24.17;14.93;;;-3.70;99.90;;;;;;10451236;28;20231;-82
2024/01/08 12:55:31;;;;;;;24.23;14.07;;;-3.80;99.90;;;;;;10482299;28;20288;-83
2024/01/08 13:00:35;;;;;;;26.43;15.20;;;-3.90;99.90;;;;;;10450085;28;20234;-83
2024/01/08 13:05:38;;;;;;;32.07;18.00;;;-4.00;99.90;;;;;;10449749;28;20274;-82
2024/01/08 13:10:41;;;;;;;92.30;34.90;;;-4.00;99.90;;;;;;10449804;28;20222;-83
2024/01/08 13:15:43;;;;;;;47.97;22.00;;;-4.00;99.90;;;;;;10449851;28;20253;-83
2024/01/08 13:20:46;;;;;;;27.53;16.37;;;-3.70;99.90;;;;;;10449670;28;20323;-83
2024/01/08 13:25:49;;;;;;;25.73;15.07;;;-3.40;99.90;;;;;;10449600;28;20784;-83
2024/01/08 13:30:52;;;;;;;24.20;15.17;;;-3.20;99.90;;;;;;10449298;28;20230;-83
2024/01/08 13:35:55;;;;;;;27.70;15.97;;;-3.50;99.90;;;;;;10448878;28;20688;-83
2024/01/08 13:41:00;;;;;;;24.07;13.20;;;-3.50;99.90;;;;;;10448768;28;20645;-83
2024/01/08 13:46:02;;;;;;;23.57;14.13;;;-3.30;99.90;;;;;;10448658;28;20258;-83
2024/01/08 13:51:05;;;;;;;26.67;15.40;;;-3.20;99.90;;;;;;10447896;28;20647;-83
2024/01/08 13:56:08;;;;;;;18.97;12.37;;;-3.50;99.90;;;;;;10447971;28;20685;-83
2024/01/08 14:01:12;;;;;;;22.27;13.60;;;-3.90;99.90;;;;;;10449050;28;20218;-83
2024/01/08 14:06:15;;;;;;;23.63;14.53;;;-3.60;99.90;;;;;;10446227;28;20276;-83
2024/01/08 14:11:18;;;;;;;21.97;12.30;;;-3.60;99.90;;;;;;10447811;28;20301;-83
2024/01/08 14:16:20;;;;;;;30.30;17.40;;;-3.40;99.90;;;;;;10447721;28;20300;-82
2024/01/08 14:21:23;;;;;;;24.33;12.67;;;-3.50;99.90;;;;;;10446769;28;20269;-83
2024/01/08 14:26:25;;;;;;;22.00;12.83;;;-3.80;99.90;;;;;;10446452;28;20316;-82
2024/01/08 14:31:28;;;;;;;22.03;13.73;;;-3.80;99.90;;;;;;10447259;28;20628;-82
2024/01/08 14:36:31;;;;;;;14.23;9.30;;;-3.70;99.90;;;;;;10447326;28;20234;-83
2024/01/08 14:41:33;;;;;;;23.40;14.27;;;-4.20;99.90;;;;;;10447704;28;20242;-82
2024/01/08 14:46:36;;;;;;;28.40;16.87;;;-4.40;99.90;;;;;;10447601;28;20652;-83
2024/01/08 14:51:38;;;;;;;21.80;13.47;;;-4.30;99.90;;;;;;10447773;28;20679;-83
2024/01/08 14:56:41;;;;;;;24.53;15.40;;;-4.30;99.90;;;;;;10477630;28;20243;-82
2024/01/08 15:01:43;;;;;;;21.43;13.97;;;-4.10;99.90;;;;;;10461797;28;20250;-83
2024/01/08 15:06:46;;;;;;;28.60;14.77;;;-4.30;99.90;;;;;;10454345;28;20258;-83
2024/01/08 15:11:49;;;;;;;25.87;13.70;;;-4.80;99.90;;;;;;10455264;28;20230;-83
2024/01/08 15:16:52;;;;;;;25.80;15.70;;;-4.70;99.90;;;;;;10454637;28;20254;-83
2024/01/08 15:21:55;;;;;;;20.50;14.13;;;-4.70;99.90;;;;;;10453745;28;20297;-82
2024/01/08 15:26:57;;;;;;;23.93;14.17;;;-4.90;99.90;;;;;;10453273;28;20250;-82
2024/01/08 15:32:00;;;;;;;27.03;15.20;;;-5.00;99.90;;;;;;10429455;28;20612;-83
2024/01/08 15:37:03;;;;;;;20.53;13.27;;;-5.10;99.90;;;;;;10435015;28;20512;-83
2024/01/08 15:42:05;;;;;;;38.30;20.20;;;-4.70;99.90;;;;;;10428772;28;20258;-82
2024/01/08 15:47:08;;;;;;;35.57;18.30;;;-2.20;99.90;;;;;;10453642;28;20296;-82
2024/01/08 15:52:11;;;;;;;30.77;16.97;;;-3.30;99.90;;;;;;10443904;28;20757;-82
2024/01/08 15:57:14;;;;;;;30.20;16.23;;;-4.40;99.90;;;;;;10452112;28;20305;-84
2024/01/08 16:02:16;;;;;;;33.77;18.53;;;-5.10;99.90;;;;;;10453609;28;20297;-84
2024/01/08 16:07:19;;;;;;;35.47;18.60;;;-5.50;99.90;;;;;;10452393;28;20254;-84
2024/01/08 16:12:22;;;;;;;33.60;19.80;;;-5.40;99.90;;;;;;10415511;28;20236;-84
2024/01/08 16:17:24;;;;;;;33.97;18.87;;;-5.70;99.90;;;;;;10411713;28;20924;-84
2024/01/08 16:22:27;;;;;;;32.90;18.07;;;-5.60;99.90;;;;;;10438591;28;20267;-84
2024/01/08 16:27:30;;;;;;;32.47;19.73;;;-5.50;99.90;;;;;;10448676;28;20243;-84
2024/01/08 16:32:32;;;;;;;42.30;19.53;;;-5.30;99.90;;;;;;10437913;28;20238;-84
2024/01/08 16:37:36;;;;;;;33.53;18.17;;;-6.00;99.90;;;;;;10450550;28;20234;-84
2024/01/08 16:42:39;;;;;;;35.73;18.37;;;-6.00;99.90;;;;;;10423974;28;20280;-84
2024/01/08 16:47:44;;;;;;;28.37;18.10;;;-5.70;99.90;;;;;;10411232;28;20263;-83
2024/01/08 16:52:56;;;;;;;29.97;18.77;;;-5.40;99.90;;;;;;10411115;28;20281;-83
2024/01/08 16:57:59;;;;;;;31.47;17.93;;;-5.30;99.90;;;;;;9724533;28;10000661;-83
2024/01/08 17:03:02;;;;;;;34.70;19.60;;;-4.10;99.90;;;;;;10424158;28;20249;-84
2024/01/08 17:08:05;;;;;;;32.43;19.27;;;-4.10;99.90;;;;;;10409407;28;20251;-83
2024/01/08 17:13:09;;;;;;;37.03;21.70;;;-5.40;99.90;;;;;;10406822;28;20309;-83
2024/01/08 17:18:12;;;;;;;34.93;20.60;;;-5.60;99.90;;;;;;10407347;28;20259;-83
2024/01/08 17:23:14;;;;;;;39.73;23.13;;;-6.00;99.90;;;;;;10406863;28;20341;-83
2024/01/08 17:28:17;;;;;;;41.17;22.37;;;-6.10;99.90;;;;;;10414266;28;20238;-83
2024/01/08 17:33:22;;;;;;;34.83;20.23;;;-6.00;99.90;;;;;;10431929;28;20227;-83
2024/01/08 17:38:27;;;;;;;38.23;21.40;;;-5.90;99.90;;;;;;10424737;28;20231;-83
2024/01/08 17:43:30;;;;;;;42.23;22.53;;;-5.80;99.90;;;;;;10436127;28;20230;-83
2024/01/08 17:48:33;;;;;;;41.97;23.43;;;-6.00;99.90;;;;;;10440956;28;20288;-83
2024/01/08 17:53:35;;;;;;;39.57;22.97;;;-5.80;99.90;;;;;;10445861;28;20685;-84
2024/01/08 17:58:40;;;;;;;34.17;19.70;;;-5.70;99.90;;;;;;10433034;28;20239;-84
2024/01/08 18:03:43;;;;;;;34.37;19.70;;;-5.80;99.90;;;;;;10418892;28;20235;-83
2024/01/08 18:08:45;;;;;;;48.87;26.00;;;-5.40;99.90;;;;;;10423182;28;20260;-83
2024/01/08 18:13:48;;;;;;;48.80;25.63;;;-5.80;99.90;;;;;;10414092;28;20235;-83
2024/01/08 18:18:51;;;;;;;58.30;31.60;;;-5.50;99.90;;;;;;10416082;28;20228;-83
2024/01/08 18:23:55;;;;;;;57.90;31.17;;;-5.80;99.90;;;;;;10407085;28;20259;-83
2024/01/08 18:28:58;;;;;;;60.33;31.33;;;-5.70;99.90;;;;;;10401796;28;20301;-83
2024/01/08 18:34:01;;;;;;;67.80;34.83;;;-6.30;99.90;;;;;;10438232;28;20234;-83
2024/01/08 18:39:05;;;;;;;79.97;39.30;;;-6.10;99.90;;;;;;10430077;28;20226;-83
2024/01/08 18:44:09;;;;;;;55.07;30.13;;;-6.20;99.90;;;;;;10417169;28;20240;-83
2024/01/08 18:49:11;;;;;;;114.80;60.57;;;-6.80;99.90;;;;;;10415360;28;20262;-83
2024/01/08 18:54:14;;;;;;;55.20;29.90;;;-6.50;99.90;;;;;;10433778;28;20367;-83
2024/01/08 18:59:17;;;;;;;53.27;29.33;;;-6.40;99.90;;;;;;10448865;28;20239;-83
2024/01/08 19:04:19;;;;;;;58.07;32.00;;;-6.70;99.90;;;;;;10455022;28;20315;-84
2024/01/08 19:09:22;;;;;;;63.50;33.23;;;-7.00;99.90;;;;;;10454970;28;20235;-84
2024/01/08 19:14:24;;;;;;;60.67;30.47;;;-7.10;99.90;;;;;;10414669;28;20284;-83
2024/01/08 19:19:28;;;;;;;55.37;27.37;;;-7.40;99.90;;;;;;10412555;28;20297;-83
2024/01/08 19:24:30;;;;;;;51.47;28.87;;;-7.10;99.90;;;;;;10414653;28;20247;-83
2024/01/08 19:29:33;;;;;;;48.73;26.50;;;-7.10;99.90;;;;;;10438057;28;20235;-83
2024/01/08 19:34:35;;;;;;;49.37;28.13;;;-7.30;99.90;;;;;;10437847;28;20227;-83
2024/01/08 19:39:40;;;;;;;45.57;26.57;;;-7.50;99.90;;;;;;10426903;28;20271;-84
2024/01/08 19:44:42;;;;;;;51.17;27.27;;;-7.50;99.90;;;;;;10420768;28;20247;-83
2024/01/08 19:49:45;;;;;;;49.47;27.53;;;-7.50;99.90;;;;;;10438286;28;20704;-83
2024/01/08 19:54:52;;;;;;;49.77;25.77;;;-7.50;99.90;;;;;;10446927;28;20250;-83
2024/01/08 19:59:54;;;;;;;47.93;25.97;;;-7.40;99.90;;;;;;10435379;28;20235;-83
2024/01/08 20:04:57;;;;;;;47.13;24.97;;;-7.40;99.90;;;;;;10422689;28;20319;-83
2024/01/08 20:10:00;;;;;;;50.37;26.27;;;-6.60;99.90;;;;;;10436617;28;20256;-83
2024/01/08 20:15:04;;;;;;;58.53;28.57;;;-6.60;99.90;;;;;;10447293;28;20269;-83
2024/01/08 20:20:07;;;;;;;140.73;57.33;;;-6.40;99.90;;;;;;10449201;28;20262;-83
2024/01/08 20:25:13;;;;;;;292.43;102.07;;;-7.20;99.90;;;;;;10439388;28;20251;-85
2024/01/08 20:30:15;;;;;;;279.73;85.50;;;-7.80;99.90;;;;;;10412583;28;20285;-85
2024/01/08 20:35:18;;;;;;;360.03;132.43;;;-7.70;99.90;;;;;;10424800;28;20301;-85
2024/01/08 20:40:21;;;;;;;209.90;85.43;;;-8.10;99.90;;;;;;10451247;28;20238;-85
2024/01/08 20:45:25;;;;;;;145.60;62.43;;;-8.10;99.90;;;;;;10450118;28;20246;-85
2024/01/08 20:50:27;;;;;;;193.33;62.77;;;-8.10;99.90;;;;;;10412650;28;20231;-85
2024/01/08 20:55:30;;;;;;;136.57;47.90;;;-7.70;99.90;;;;;;10460163;28;20234;-85
2024/01/08 21:00:34;;;;;;;113.07;41.93;;;-7.50;99.90;;;;;;10421462;28;20274;-84
2024/01/08 21:05:37;;;;;;;60.87;27.30;;;-7.90;99.90;;;;;;10409021;28;20247;-83
2024/01/08 21:10:40;;;;;;;59.93;32.63;;;-7.40;99.90;;;;;;10415055;28;20282;-83
2024/01/08 21:15:42;;;;;;;49.03;25.47;;;-7.00;99.90;;;;;;10441733;28;20287;-84
2024/01/08 21:20:45;;;;;;;58.67;29.03;;;-6.70;99.90;;;;;;10436980;28;20297;-85
2024/01/08 21:25:47;;;;;;;56.00;29.30;;;-6.90;99.90;;;;;;10423088;28;20281;-85
2024/01/08 21:30:50;;;;;;;79.67;40.50;;;-7.10;99.90;;;;;;10437351;28;20684;-84
2024/01/08 21:35:52;;;;;;;75.60;37.83;;;-7.10;99.90;;;;;;10412848;28;20235;-85
2024/01/08 21:40:55;;;;;;;71.00;33.97;;;-7.70;99.90;;;;;;10446704;28;20234;-85
2024/01/08 21:45:58;;;;;;;80.43;40.23;;;-7.80;99.90;;;;;;10419317;28;20263;-85
2024/01/08 21:51:04;;;;;;;66.20;35.30;;;-7.70;99.90;;;;;;10408037;28;20309;-85
2024/01/08 21:56:06;;;;;;;63.17;31.40;;;-8.20;99.90;;;;;;10444625;28;20230;-85
2024/01/08 22:01:10;;;;;;;70.50;33.53;;;-8.20;99.90;;;;;;10422445;28;20257;-84
2024/01/08 22:06:13;;;;;;;83.10;37.23;;;-8.30;99.90;;;;;;10431190;28;20276;-85
2024/01/08 22:11:16;;;;;;;53.50;27.57;;;-8.40;99.90;;;;;;10448570;28;20234;-84
2024/01/08 22:16:18;;;;;;;65.00;32.47;;;-8.20;99.90;;;;;;10430307;28;20229;-84
2024/01/08 22:21:20;;;;;;;62.20;30.47;;;-8.60;99.90;;;;;;10446305;28;20265;-84
2024/01/08 22:26:24;;;;;;;67.67;34.67;;;-8.60;99.90;;;;;;10517897;28;20247;-85
2024/01/08 22:31:27;;;;;;;52.53;29.13;;;-8.50;99.90;;;;;;10552140;28;20225;-85
2024/01/08 22:36:29;;;;;;;55.97;30.23;;;-8.80;99.90;;;;;;10546036;28;20263;-85
2024/01/08 22:41:32;;;;;;;59.60;29.53;;;-8.40;99.90;;;;;;10513599;28;20324;-85
2024/01/08 22:46:34;;;;;;;63.30;32.57;;;-8.20;99.90;;;;;;10547269;28;20241;-85
2024/01/08 22:51:37;;;;;;;62.07;30.47;;;-8.60;99.90;;;;;;10543768;28;20287;-85
2024/01/08 22:56:39;;;;;;;62.53;31.50;;;-8.40;99.90;;;;;;10549652;28;20628;-85
2024/01/08 23:01:46;;;;;;;58.53;30.73;;;-8.80;99.90;;;;;;10531340;28;20232;-85
2024/01/08 23:06:49;;;;;;;61.07;27.97;;;-8.70;99.90;;;;;;10544704;28;20307;-85
2024/01/08 23:11:52;;;;;;;60.87;30.57;;;-7.90;99.90;;;;;;10542828;28;20267;-85
2024/01/08 23:16:54;;;;;;;68.60;34.00;;;-7.90;99.90;;;;;;10546540;28;20259;-85
2024/01/08 23:21:57;;;;;;;59.07;30.87;;;-7.30;99.90;;;;;;10535376;28;20252;-85
2024/01/08 23:27:00;;;;;;;61.10;32.37;;;-7.80;99.90;;;;;;10544484;28;20315;-85
2024/01/08 23:32:04;;;;;;;65.13;30.20;;;-8.30;99.90;;;;;;10552775;28;20281;-85
2024/01/08 23:37:06;;;;;;;68.53;31.93;;;-8.50;99.90;;;;;;10554945;28;20751;-85
2024/01/08 23:42:11;;;;;;;65.53;32.23;;;-8.70;99.90;;;;;;10554968;28;20695;-85
2024/01/08 23:47:13;;;;;;;59.50;31.10;;;-9.10;99.90;;;;;;10557772;28;20264;-84
2024/01/08 23:52:16;;;;;;;66.10;33.90;;;-9.20;99.90;;;;;;10538572;28;20662;-84
2024/01/08 23:57:18;;;;;;;38.97;22.93;;;-9.60;99.90;;;;;;10555665;28;20267;-86
